Terminal Aerodrome Forecast
Issued by NWS

Home | Current Version | Previous Version | Text Only | Print | Product List | Glossary On
Versions: 1 2 3 4 5 6 7 8 9 10 11 12
000
FTUS45 KTWC 202343
TAFOLS
TAF
KOLS 202343Z 2100/2124 28007KT P6SM BKN200
     FM210200 VRB03KT P6SM BKN200
     FM212100 35007KT P6SM SCT200=

USA.gov is the U.S. government's official web portal to all federal, state and local government web resources and services.